sensor_id;sensor_type;location;lat;lon;timestamp;temperature;humidity
59881;DHT22;45751;51.380;10.326;2022-12-29T00:00:08;7.60;99.90
59881;DHT22;45751;51.380;10.326;2022-12-29T00:02:40;7.60;99.90
59881;DHT22;45751;51.380;10.326;2022-12-29T00:05:07;7.70;99.90
59881;DHT22;45751;51.380;10.326;2022-12-29T00:07:34;7.70;99.90
59881;DHT22;45751;51.380;10.326;2022-12-29T00:10:01;7.60;99.90
59881;DHT22;45751;51.380;10.326;2022-12-29T00:12:28;7.70;99.90
59881;DHT22;45751;51.380;10.326;2022-12-29T00:15:14;7.70;99.90
59881;DHT22;45751;51.380;10.326;2022-12-29T00:18:00;7.70;99.90
59881;DHT22;45751;51.380;10.326;2022-12-29T00:20:27;7.70;99.90
59881;DHT22;45751;51.380;10.326;2022-12-29T00:23:13;7.70;99.90
59881;DHT22;45751;51.380;10.326;2022-12-29T00:26:02;7.80;99.90
59881;DHT22;45751;51.380;10.326;2022-12-29T00:28:49;7.80;99.90
59881;DHT22;45751;51.380;10.326;2022-12-29T00:31:45;7.70;99.90
59881;DHT22;45751;51.380;10.326;2022-12-29T00:34:30;7.80;99.90
59881;DHT22;45751;51.380;10.326;2022-12-29T00:37:15;7.90;99.90
59881;DHT22;45751;51.380;10.326;2022-12-29T00:39:43;7.80;99.90
59881;DHT22;45751;51.380;10.326;2022-12-29T00:42:30;7.90;99.90
59881;DHT22;45751;51.380;10.326;2022-12-29T00:45:16;7.90;99.90
59881;DHT22;45751;51.380;10.326;2022-12-29T00:47:43;8.00;99.90
59881;DHT22;45751;51.380;10.326;2022-12-29T00:50:10;8.00;99.90
59881;DHT22;45751;51.380;10.326;2022-12-29T00:52:37;8.00;99.90
59881;DHT22;45751;51.380;10.326;2022-12-29T00:55:04;8.00;99.90
59881;DHT22;45751;51.380;10.326;2022-12-29T00:57:31;8.10;99.90
59881;DHT22;45751;51.380;10.326;2022-12-29T00:59:58;8.10;99.90
59881;DHT22;45751;51.380;10.326;2022-12-29T01:02:25;8.10;99.90
59881;DHT22;45751;51.380;10.326;2022-12-29T01:04:52;8.10;99.90
59881;DHT22;45751;51.380;10.326;2022-12-29T01:07:19;8.00;99.90
59881;DHT22;45751;51.380;10.326;2022-12-29T01:09:46;8.10;99.90
59881;DHT22;45751;51.380;10.326;2022-12-29T01:12:33;8.10;99.90
59881;DHT22;45751;51.380;10.326;2022-12-29T01:15:12;8.10;99.90
59881;DHT22;45751;51.380;10.326;2022-12-29T01:17:40;8.20;99.90
59881;DHT22;45751;51.380;10.326;2022-12-29T01:20:08;8.10;99.90
59881;DHT22;45751;51.380;10.326;2022-12-29T01:22:35;8.10;99.90
59881;DHT22;45751;51.380;10.326;2022-12-29T01:25:02;8.20;99.90
59881;DHT22;45751;51.380;10.326;2022-12-29T01:27:29;8.10;99.90
59881;DHT22;45751;51.380;10.326;2022-12-29T01:29:57;8.10;99.90
59881;DHT22;45751;51.380;10.326;2022-12-29T01:32:23;8.20;99.90
59881;DHT22;45751;51.380;10.326;2022-12-29T01:34:50;8.20;99.90
59881;DHT22;45751;51.380;10.326;2022-12-29T01:37:17;8.10;99.90
59881;DHT22;45751;51.380;10.326;2022-12-29T01:39:44;8.20;99.90
59881;DHT22;45751;51.380;10.326;2022-12-29T01:42:16;8.20;99.90
59881;DHT22;45751;51.380;10.326;2022-12-29T01:47:40;8.20;99.90
59881;DHT22;45751;51.380;10.326;2022-12-29T01:50:23;8.20;99.90
59881;DHT22;45751;51.380;10.326;2022-12-29T01:52:57;8.20;99.90
59881;DHT22;45751;51.380;10.326;2022-12-29T01:55:27;8.20;99.90
59881;DHT22;45751;51.380;10.326;2022-12-29T01:57:56;8.20;99.90
59881;DHT22;45751;51.380;10.326;2022-12-29T02:00:25;8.30;99.90
59881;DHT22;45751;51.380;10.326;2022-12-29T02:02:53;8.30;99.90
59881;DHT22;45751;51.380;10.326;2022-12-29T02:08:05;8.30;99.90
59881;DHT22;45751;51.380;10.326;2022-12-29T02:10:34;8.30;99.90
59881;DHT22;45751;51.380;10.326;2022-12-29T02:13:02;8.40;99.90
59881;DHT22;45751;51.380;10.326;2022-12-29T02:25:00;8.40;99.90
59881;DHT22;45751;51.380;10.326;2022-12-29T02:27:46;8.40;99.90
59881;DHT22;45751;51.380;10.326;2022-12-29T02:30:36;8.40;99.90
59881;DHT22;45751;51.380;10.326;2022-12-29T02:36:10;8.50;99.90
59881;DHT22;45751;51.380;10.326;2022-12-29T02:41:23;8.50;99.90
59881;DHT22;45751;51.380;10.326;2022-12-29T02:43:59;8.50;99.90
59881;DHT22;45751;51.380;10.326;2022-12-29T02:46:28;8.60;99.90
59881;DHT22;45751;51.380;10.326;2022-12-29T02:49:13;8.60;99.90
59881;DHT22;45751;51.380;10.326;2022-12-29T02:51:51;8.60;99.90
59881;DHT22;45751;51.380;10.326;2022-12-29T02:54:19;8.60;99.90
59881;DHT22;45751;51.380;10.326;2022-12-29T02:59:41;8.60;99.90
59881;DHT22;45751;51.380;10.326;2022-12-29T03:02:34;8.60;99.90
59881;DHT22;45751;51.380;10.326;2022-12-29T03:08:18;8.70;99.90
59881;DHT22;45751;51.380;10.326;2022-12-29T03:11:09;8.70;99.90
59881;DHT22;45751;51.380;10.326;2022-12-29T03:14:26;8.90;99.90
59881;DHT22;45751;51.380;10.326;2022-12-29T03:17:46;8.70;99.90
59881;DHT22;45751;51.380;10.326;2022-12-29T03:20:19;8.70;99.90
59881;DHT22;45751;51.380;10.326;2022-12-29T03:22:56;8.70;99.90
59881;DHT22;45751;51.380;10.326;2022-12-29T03:25:35;8.70;99.90
59881;DHT22;45751;51.380;10.326;2022-12-29T03:28:23;8.70;99.90
59881;DHT22;45751;51.380;10.326;2022-12-29T03:30:51;8.70;99.90
59881;DHT22;45751;51.380;10.326;2022-12-29T03:33:23;8.80;99.90
59881;DHT22;45751;51.380;10.326;2022-12-29T03:35:55;8.80;99.90
59881;DHT22;45751;51.380;10.326;2022-12-29T03:38:33;8.80;99.90
59881;DHT22;45751;51.380;10.326;2022-12-29T03:41:05;8.80;99.90
59881;DHT22;45751;51.380;10.326;2022-12-29T03:43:34;8.80;99.90
59881;DHT22;45751;51.380;10.326;2022-12-29T03:46:01;8.80;99.90
59881;DHT22;45751;51.380;10.326;2022-12-29T03:48:28;8.80;99.90
59881;DHT22;45751;51.380;10.326;2022-12-29T03:50:55;8.70;99.90
59881;DHT22;45751;51.380;10.326;2022-12-29T03:53:22;8.90;99.90
59881;DHT22;45751;51.380;10.326;2022-12-29T03:55:50;8.90;99.90
59881;DHT22;45751;51.380;10.326;2022-12-29T03:58:17;8.80;99.90
59881;DHT22;45751;51.380;10.326;2022-12-29T04:00:59;8.90;99.90
59881;DHT22;45751;51.380;10.326;2022-12-29T04:03:29;8.80;99.90
59881;DHT22;45751;51.380;10.326;2022-12-29T04:05:56;8.80;99.90
59881;DHT22;45751;51.380;10.326;2022-12-29T04:08:23;8.80;99.90
59881;DHT22;45751;51.380;10.326;2022-12-29T04:10:51;8.90;99.90
59881;DHT22;45751;51.380;10.326;2022-12-29T04:13:20;8.80;99.90
59881;DHT22;45751;51.380;10.326;2022-12-29T04:15:47;8.80;99.90
59881;DHT22;45751;51.380;10.326;2022-12-29T04:18:14;8.80;99.90
59881;DHT22;45751;51.380;10.326;2022-12-29T04:20:44;8.90;99.90
59881;DHT22;45751;51.380;10.326;2022-12-29T04:23:29;8.90;99.90
59881;DHT22;45751;51.380;10.326;2022-12-29T04:25:56;8.90;99.90
59881;DHT22;45751;51.380;10.326;2022-12-29T04:28:24;8.90;99.90
59881;DHT22;45751;51.380;10.326;2022-12-29T04:31:10;9.00;99.90
59881;DHT22;45751;51.380;10.326;2022-12-29T04:33:40;9.00;99.90
59881;DHT22;45751;51.380;10.326;2022-12-29T04:36:07;9.00;99.90
59881;DHT22;45751;51.380;10.326;2022-12-29T04:38:35;9.00;99.90
59881;DHT22;45751;51.380;10.326;2022-12-29T04:41:04;9.00;99.90
59881;DHT22;45751;51.380;10.326;2022-12-29T04:43:32;9.00;99.90
59881;DHT22;45751;51.380;10.326;2022-12-29T04:46:20;9.10;99.90
59881;DHT22;45751;51.380;10.326;2022-12-29T04:48:58;9.10;99.90
59881;DHT22;45751;51.380;10.326;2022-12-29T04:51:49;9.10;99.90
59881;DHT22;45751;51.380;10.326;2022-12-29T04:54:17;9.10;99.90
59881;DHT22;45751;51.380;10.326;2022-12-29T04:56:49;9.10;99.90
59881;DHT22;45751;51.380;10.326;2022-12-29T04:59:17;9.10;99.90
59881;DHT22;45751;51.380;10.326;2022-12-29T05:01:47;9.10;99.90
59881;DHT22;45751;51.380;10.326;2022-12-29T05:04:14;9.10;99.90
59881;DHT22;45751;51.380;10.326;2022-12-29T05:06:43;9.10;99.90
59881;DHT22;45751;51.380;10.326;2022-12-29T05:09:10;9.10;99.90
59881;DHT22;45751;51.380;10.326;2022-12-29T05:11:37;9.10;99.90
59881;DHT22;45751;51.380;10.326;2022-12-29T05:14:05;9.10;99.90
59881;DHT22;45751;51.380;10.326;2022-12-29T05:16:34;9.10;99.90
59881;DHT22;45751;51.380;10.326;2022-12-29T05:19:01;9.10;99.90
59881;DHT22;45751;51.380;10.326;2022-12-29T05:21:30;9.20;99.90
59881;DHT22;45751;51.380;10.326;2022-12-29T05:23:58;9.20;99.90
59881;DHT22;45751;51.380;10.326;2022-12-29T05:26:25;9.20;99.90
59881;DHT22;45751;51.380;10.326;2022-12-29T05:29:07;9.20;99.90
59881;DHT22;45751;51.380;10.326;2022-12-29T05:31:34;9.20;99.90
59881;DHT22;45751;51.380;10.326;2022-12-29T05:34:03;9.20;99.90
59881;DHT22;45751;51.380;10.326;2022-12-29T05:36:31;9.20;99.90
59881;DHT22;45751;51.380;10.326;2022-12-29T05:39:05;9.20;99.90
59881;DHT22;45751;51.380;10.326;2022-12-29T05:41:34;9.20;99.90
59881;DHT22;45751;51.380;10.326;2022-12-29T05:44:10;9.20;99.90
59881;DHT22;45751;51.380;10.326;2022-12-29T05:46:49;9.30;99.90
59881;DHT22;45751;51.380;10.326;2022-12-29T05:49:40;9.20;99.90
59881;DHT22;45751;51.380;10.326;2022-12-29T05:52:09;9.30;99.90
59881;DHT22;45751;51.380;10.326;2022-12-29T05:54:36;9.40;99.90
59881;DHT22;45751;51.380;10.326;2022-12-29T05:57:10;9.30;99.90
59881;DHT22;45751;51.380;10.326;2022-12-29T05:59:38;9.30;99.90
59881;DHT22;45751;51.380;10.326;2022-12-29T06:02:05;9.30;99.90
59881;DHT22;45751;51.380;10.326;2022-12-29T06:04:34;9.30;99.90
59881;DHT22;45751;51.380;10.326;2022-12-29T06:07:01;9.40;99.90
59881;DHT22;45751;51.380;10.326;2022-12-29T06:09:40;9.40;99.90
59881;DHT22;45751;51.380;10.326;2022-12-29T06:12:09;9.40;99.90
59881;DHT22;45751;51.380;10.326;2022-12-29T06:14:37;9.40;99.90
59881;DHT22;45751;51.380;10.326;2022-12-29T06:17:05;9.40;99.90
59881;DHT22;45751;51.380;10.326;2022-12-29T06:19:33;9.40;99.90
59881;DHT22;45751;51.380;10.326;2022-12-29T06:22:00;9.40;99.90
59881;DHT22;45751;51.380;10.326;2022-12-29T06:24:27;9.30;99.90
59881;DHT22;45751;51.380;10.326;2022-12-29T06:26:54;9.30;99.90
59881;DHT22;45751;51.380;10.326;2022-12-29T06:29:21;9.30;99.90
59881;DHT22;45751;51.380;10.326;2022-12-29T06:31:48;9.30;99.90
59881;DHT22;45751;51.380;10.326;2022-12-29T06:34:16;9.30;99.90
59881;DHT22;45751;51.380;10.326;2022-12-29T06:36:43;9.30;99.90
59881;DHT22;45751;51.380;10.326;2022-12-29T06:39:10;9.30;99.90
59881;DHT22;45751;51.380;10.326;2022-12-29T06:41:37;9.30;99.90
59881;DHT22;45751;51.380;10.326;2022-12-29T06:44:39;9.30;99.90
59881;DHT22;45751;51.380;10.326;2022-12-29T06:47:09;9.40;99.90
59881;DHT22;45751;51.380;10.326;2022-12-29T06:49:36;9.30;99.90
59881;DHT22;45751;51.380;10.326;2022-12-29T06:52:03;9.30;99.90
59881;DHT22;45751;51.380;10.326;2022-12-29T06:54:38;9.30;99.90
59881;DHT22;45751;51.380;10.326;2022-12-29T06:57:05;9.30;99.90
59881;DHT22;45751;51.380;10.326;2022-12-29T06:59:33;9.30;99.90
59881;DHT22;45751;51.380;10.326;2022-12-29T07:02:00;9.30;99.90
59881;DHT22;45751;51.380;10.326;2022-12-29T07:04:29;9.30;99.90
59881;DHT22;45751;51.380;10.326;2022-12-29T07:06:55;9.30;99.90
59881;DHT22;45751;51.380;10.326;2022-12-29T07:09:22;9.30;99.90
59881;DHT22;45751;51.380;10.326;2022-12-29T07:11:49;9.30;99.90
59881;DHT22;45751;51.380;10.326;2022-12-29T07:14:17;9.40;99.90
59881;DHT22;45751;51.380;10.326;2022-12-29T07:16:43;9.40;99.90
59881;DHT22;45751;51.380;10.326;2022-12-29T07:19:10;9.50;99.90
59881;DHT22;45751;51.380;10.326;2022-12-29T07:21:37;9.50;99.90
59881;DHT22;45751;51.380;10.326;2022-12-29T07:24:04;9.50;99.90
59881;DHT22;45751;51.380;10.326;2022-12-29T07:26:31;9.50;99.90
59881;DHT22;45751;51.380;10.326;2022-12-29T07:29:05;9.50;99.90
59881;DHT22;45751;51.380;10.326;2022-12-29T07:31:32;9.50;99.90
59881;DHT22;45751;51.380;10.326;2022-12-29T07:33:59;9.50;99.90
59881;DHT22;45751;51.380;10.326;2022-12-29T07:36:25;9.60;99.90
59881;DHT22;45751;51.380;10.326;2022-12-29T07:39:00;9.60;99.90
59881;DHT22;45751;51.380;10.326;2022-12-29T07:41:27;9.60;99.90
59881;DHT22;45751;51.380;10.326;2022-12-29T07:43:54;9.60;99.90
59881;DHT22;45751;51.380;10.326;2022-12-29T07:46:30;9.60;99.90
59881;DHT22;45751;51.380;10.326;2022-12-29T07:49:17;9.60;99.90
59881;DHT22;45751;51.380;10.326;2022-12-29T07:51:44;9.60;99.90
59881;DHT22;45751;51.380;10.326;2022-12-29T07:54:11;9.70;99.90
59881;DHT22;45751;51.380;10.326;2022-12-29T07:56:39;9.60;99.90
59881;DHT22;45751;51.380;10.326;2022-12-29T07:59:06;9.70;99.90
59881;DHT22;45751;51.380;10.326;2022-12-29T08:01:32;9.70;99.90
59881;DHT22;45751;51.380;10.326;2022-12-29T08:04:00;9.70;99.90
59881;DHT22;45751;51.380;10.326;2022-12-29T08:06:26;9.70;99.90
59881;DHT22;45751;51.380;10.326;2022-12-29T08:08:55;9.70;99.90
59881;DHT22;45751;51.380;10.326;2022-12-29T08:11:23;9.70;99.90
59881;DHT22;45751;51.380;10.326;2022-12-29T08:13:50;9.70;99.90
59881;DHT22;45751;51.380;10.326;2022-12-29T08:16:17;9.80;99.90
59881;DHT22;45751;51.380;10.326;2022-12-29T08:18:44;9.70;99.90
59881;DHT22;45751;51.380;10.326;2022-12-29T08:21:11;9.80;99.90
59881;DHT22;45751;51.380;10.326;2022-12-29T08:23:38;9.80;99.90
59881;DHT22;45751;51.380;10.326;2022-12-29T08:26:05;9.70;99.90
59881;DHT22;45751;51.380;10.326;2022-12-29T08:28:33;9.70;99.90
59881;DHT22;45751;51.380;10.326;2022-12-29T08:31:01;9.70;99.90
59881;DHT22;45751;51.380;10.326;2022-12-29T08:33:29;9.60;99.90
59881;DHT22;45751;51.380;10.326;2022-12-29T08:36:03;9.60;99.90
59881;DHT22;45751;51.380;10.326;2022-12-29T08:38:31;9.60;99.90
59881;DHT22;45751;51.380;10.326;2022-12-29T08:40:58;9.60;99.90
59881;DHT22;45751;51.380;10.326;2022-12-29T08:43:28;9.60;99.90
59881;DHT22;45751;51.380;10.326;2022-12-29T08:45:55;9.60;99.90
59881;DHT22;45751;51.380;10.326;2022-12-29T08:48:22;9.60;99.90
59881;DHT22;45751;51.380;10.326;2022-12-29T08:50:49;9.60;99.90
59881;DHT22;45751;51.380;10.326;2022-12-29T08:53:17;9.50;99.90
59881;DHT22;45751;51.380;10.326;2022-12-29T08:55:58;9.50;99.90
59881;DHT22;45751;51.380;10.326;2022-12-29T08:58:37;9.40;99.90
59881;DHT22;45751;51.380;10.326;2022-12-29T09:01:04;9.40;99.90
59881;DHT22;45751;51.380;10.326;2022-12-29T09:03:32;9.40;99.90
59881;DHT22;45751;51.380;10.326;2022-12-29T09:06:19;9.30;99.90
59881;DHT22;45751;51.380;10.326;2022-12-29T09:08:46;9.30;99.90
59881;DHT22;45751;51.380;10.326;2022-12-29T09:11:19;9.30;99.90
59881;DHT22;45751;51.380;10.326;2022-12-29T09:13:46;9.30;99.90
59881;DHT22;45751;51.380;10.326;2022-12-29T09:16:14;9.30;99.90
59881;DHT22;45751;51.380;10.326;2022-12-29T09:18:41;9.30;99.90
59881;DHT22;45751;51.380;10.326;2022-12-29T09:21:10;9.30;99.90
59881;DHT22;45751;51.380;10.326;2022-12-29T09:23:38;9.30;99.90
59881;DHT22;45751;51.380;10.326;2022-12-29T09:26:05;9.30;99.90
59881;DHT22;45751;51.380;10.326;2022-12-29T09:28:32;9.30;99.90
59881;DHT22;45751;51.380;10.326;2022-12-29T09:30:59;9.30;99.90
59881;DHT22;45751;51.380;10.326;2022-12-29T09:33:27;9.30;99.90
59881;DHT22;45751;51.380;10.326;2022-12-29T09:35:56;9.30;99.90
59881;DHT22;45751;51.380;10.326;2022-12-29T09:38:25;9.20;99.90
59881;DHT22;45751;51.380;10.326;2022-12-29T09:41:01;9.10;99.90
59881;DHT22;45751;51.380;10.326;2022-12-29T09:48:47;9.20;99.90
59881;DHT22;45751;51.380;10.326;2022-12-29T09:51:22;9.30;99.90
59881;DHT22;45751;51.380;10.326;2022-12-29T09:54:29;9.30;99.90
59881;DHT22;45751;51.380;10.326;2022-12-29T09:56:51;9.30;99.90
59881;DHT22;45751;51.380;10.326;2022-12-29T09:59:26;9.40;99.90
59881;DHT22;45751;51.380;10.326;2022-12-29T10:01:56;9.40;99.90
59881;DHT22;45751;51.380;10.326;2022-12-29T10:04:28;9.50;99.90
59881;DHT22;45751;51.380;10.326;2022-12-29T10:07:05;9.50;99.90
59881;DHT22;45751;51.380;10.326;2022-12-29T10:10:10;9.60;99.90
59881;DHT22;45751;51.380;10.326;2022-12-29T10:12:57;9.60;99.90
59881;DHT22;45751;51.380;10.326;2022-12-29T10:18:53;9.70;99.90
59881;DHT22;45751;51.380;10.326;2022-12-29T10:24:12;9.70;99.90
59881;DHT22;45751;51.380;10.326;2022-12-29T10:26:41;9.70;99.90
59881;DHT22;45751;51.380;10.326;2022-12-29T10:29:26;9.70;99.90
59881;DHT22;45751;51.380;10.326;2022-12-29T10:32:04;9.70;99.90
59881;DHT22;45751;51.380;10.326;2022-12-29T10:34:42;9.70;99.90
59881;DHT22;45751;51.380;10.326;2022-12-29T10:39:49;9.70;99.90
59881;DHT22;45751;51.380;10.326;2022-12-29T10:42:34;9.70;99.90
59881;DHT22;45751;51.380;10.326;2022-12-29T10:45:04;9.60;99.90
59881;DHT22;45751;51.380;10.326;2022-12-29T10:47:39;9.60;99.90
59881;DHT22;45751;51.380;10.326;2022-12-29T10:50:12;9.70;99.70
59881;DHT22;45751;51.380;10.326;2022-12-29T10:52:39;9.60;99.30
59881;DHT22;45751;51.380;10.326;2022-12-29T10:55:17;9.50;99.50
59881;DHT22;45751;51.380;10.326;2022-12-29T10:57:46;9.60;99.90
59881;DHT22;45751;51.380;10.326;2022-12-29T11:00:15;9.60;98.90
59881;DHT22;45751;51.380;10.326;2022-12-29T11:08:08;9.70;97.10
59881;DHT22;45751;51.380;10.326;2022-12-29T11:10:41;9.80;96.60
59881;DHT22;45751;51.380;10.326;2022-12-29T11:13:15;9.80;96.30
59881;DHT22;45751;51.380;10.326;2022-12-29T11:18:27;9.90;95.50
59881;DHT22;45751;51.380;10.326;2022-12-29T11:21:01;9.90;95.30
59881;DHT22;45751;51.380;10.326;2022-12-29T11:23:39;9.90;94.80
59881;DHT22;45751;51.380;10.326;2022-12-29T11:28:34;9.90;95.10
59881;DHT22;45751;51.380;10.326;2022-12-29T11:31:02;9.90;95.00
59881;DHT22;45751;51.380;10.326;2022-12-29T11:33:30;9.90;95.00
59881;DHT22;45751;51.380;10.326;2022-12-29T11:36:30;9.90;94.90
59881;DHT22;45751;51.380;10.326;2022-12-29T11:38:57;9.90;94.30
59881;DHT22;45751;51.380;10.326;2022-12-29T11:41:29;10.00;94.10
59881;DHT22;45751;51.380;10.326;2022-12-29T11:43:59;10.00;93.20
59881;DHT22;45751;51.380;10.326;2022-12-29T11:46:35;10.00;92.50
59881;DHT22;45751;51.380;10.326;2022-12-29T11:49:04;10.00;91.20
59881;DHT22;45751;51.380;10.326;2022-12-29T11:54:18;10.00;91.30
59881;DHT22;45751;51.380;10.326;2022-12-29T11:56:46;10.00;90.90
59881;DHT22;45751;51.380;10.326;2022-12-29T12:00:09;10.00;90.40
59881;DHT22;45751;51.380;10.326;2022-12-29T12:05:24;10.00;89.60
59881;DHT22;45751;51.380;10.326;2022-12-29T12:08:09;10.00;89.70
59881;DHT22;45751;51.380;10.326;2022-12-29T12:10:50;10.00;88.80
59881;DHT22;45751;51.380;10.326;2022-12-29T12:13:27;10.00;88.90
59881;DHT22;45751;51.380;10.326;2022-12-29T12:18:48;10.00;88.00
59881;DHT22;45751;51.380;10.326;2022-12-29T12:21:38;10.00;88.40
59881;DHT22;45751;51.380;10.326;2022-12-29T12:29:46;10.10;86.50
59881;DHT22;45751;51.380;10.326;2022-12-29T12:32:18;10.10;86.30
59881;DHT22;45751;51.380;10.326;2022-12-29T12:34:48;10.20;85.00
59881;DHT22;45751;51.380;10.326;2022-12-29T12:46:07;10.10;80.60
59881;DHT22;45751;51.380;10.326;2022-12-29T12:51:56;10.00;81.20
59881;DHT22;45751;51.380;10.326;2022-12-29T12:54:59;10.00;80.50
59881;DHT22;45751;51.380;10.326;2022-12-29T13:00:14;10.00;81.90
59881;DHT22;45751;51.380;10.326;2022-12-29T13:08:23;10.10;82.60
59881;DHT22;45751;51.380;10.326;2022-12-29T13:13:43;10.00;81.90
59881;DHT22;45751;51.380;10.326;2022-12-29T13:19:10;10.00;81.90
59881;DHT22;45751;51.380;10.326;2022-12-29T13:21:58;10.00;80.50
59881;DHT22;45751;51.380;10.326;2022-12-29T13:30:22;10.00;80.30
59881;DHT22;45751;51.380;10.326;2022-12-29T13:35:52;10.00;80.70
59881;DHT22;45751;51.380;10.326;2022-12-29T13:38:38;10.10;81.10
59881;DHT22;45751;51.380;10.326;2022-12-29T13:41:18;10.10;81.40
59881;DHT22;45751;51.380;10.326;2022-12-29T13:43:46;10.10;81.20
59881;DHT22;45751;51.380;10.326;2022-12-29T13:46:24;10.10;80.70
59881;DHT22;45751;51.380;10.326;2022-12-29T13:48:58;10.00;80.90
59881;DHT22;45751;51.380;10.326;2022-12-29T13:51:26;10.10;81.20
59881;DHT22;45751;51.380;10.326;2022-12-29T13:54:06;10.10;81.00
59881;DHT22;45751;51.380;10.326;2022-12-29T13:56:40;10.10;80.80
59881;DHT22;45751;51.380;10.326;2022-12-29T13:59:23;10.00;81.00
59881;DHT22;45751;51.380;10.326;2022-12-29T14:02:09;10.00;81.50
59881;DHT22;45751;51.380;10.326;2022-12-29T14:07:25;10.00;82.90
59881;DHT22;45751;51.380;10.326;2022-12-29T14:09:55;10.00;83.40
59881;DHT22;45751;51.380;10.326;2022-12-29T14:17:42;9.90;84.80
59881;DHT22;45751;51.380;10.326;2022-12-29T14:20:23;9.90;85.60
59881;DHT22;45751;51.380;10.326;2022-12-29T14:22:59;9.90;86.00
59881;DHT22;45751;51.380;10.326;2022-12-29T14:25:52;10.00;86.40
59881;DHT22;45751;51.380;10.326;2022-12-29T14:28:31;9.80;86.50
59881;DHT22;45751;51.380;10.326;2022-12-29T14:31:00;9.80;86.60
59881;DHT22;45751;51.380;10.326;2022-12-29T14:33:30;9.80;86.70
59881;DHT22;45751;51.380;10.326;2022-12-29T14:38:47;9.80;87.50
59881;DHT22;45751;51.380;10.326;2022-12-29T14:41:26;9.80;88.90
59881;DHT22;45751;51.380;10.326;2022-12-29T14:46:40;9.70;87.60
59881;DHT22;45751;51.380;10.326;2022-12-29T14:49:16;9.70;87.20
59881;DHT22;45751;51.380;10.326;2022-12-29T14:51:44;9.70;87.10
59881;DHT22;45751;51.380;10.326;2022-12-29T14:57:07;9.90;87.10
59881;DHT22;45751;51.380;10.326;2022-12-29T14:59:37;9.80;86.40
59881;DHT22;45751;51.380;10.326;2022-12-29T15:02:16;9.70;86.00
59881;DHT22;45751;51.380;10.326;2022-12-29T15:04:44;9.70;86.30
59881;DHT22;45751;51.380;10.326;2022-12-29T15:07:13;9.70;86.30
59881;DHT22;45751;51.380;10.326;2022-12-29T15:10:08;9.70;86.00
59881;DHT22;45751;51.380;10.326;2022-12-29T15:12:51;9.60;85.80
59881;DHT22;45751;51.380;10.326;2022-12-29T15:15:26;9.70;86.00
59881;DHT22;45751;51.380;10.326;2022-12-29T15:17:55;9.70;85.60
59881;DHT22;45751;51.380;10.326;2022-12-29T15:20:29;9.70;85.40
59881;DHT22;45751;51.380;10.326;2022-12-29T15:22:58;9.60;84.90
59881;DHT22;45751;51.380;10.326;2022-12-29T15:25:27;9.60;84.50
59881;DHT22;45751;51.380;10.326;2022-12-29T15:28:05;9.60;85.10
59881;DHT22;45751;51.380;10.326;2022-12-29T15:30:33;9.50;84.20
59881;DHT22;45751;51.380;10.326;2022-12-29T15:33:00;9.60;83.70
59881;DHT22;45751;51.380;10.326;2022-12-29T15:35:33;9.60;83.50
59881;DHT22;45751;51.380;10.326;2022-12-29T15:38:14;9.60;83.50
59881;DHT22;45751;51.380;10.326;2022-12-29T15:40:44;9.60;83.30
59881;DHT22;45751;51.380;10.326;2022-12-29T15:43:30;9.60;83.00
59881;DHT22;45751;51.380;10.326;2022-12-29T15:46:01;9.50;82.70
59881;DHT22;45751;51.380;10.326;2022-12-29T15:48:29;9.50;82.60
59881;DHT22;45751;51.380;10.326;2022-12-29T15:50:57;9.60;82.90
59881;DHT22;45751;51.380;10.326;2022-12-29T15:53:30;9.60;83.00
59881;DHT22;45751;51.380;10.326;2022-12-29T15:56:10;9.50;82.70
59881;DHT22;45751;51.380;10.326;2022-12-29T15:58:42;9.50;82.70
59881;DHT22;45751;51.380;10.326;2022-12-29T16:01:34;9.50;82.50
59881;DHT22;45751;51.380;10.326;2022-12-29T16:04:09;9.50;82.50
59881;DHT22;45751;51.380;10.326;2022-12-29T16:06:44;9.40;82.70
59881;DHT22;45751;51.380;10.326;2022-12-29T16:09:33;9.40;82.80
59881;DHT22;45751;51.380;10.326;2022-12-29T16:12:03;9.40;82.80
59881;DHT22;45751;51.380;10.326;2022-12-29T16:14:42;9.40;82.50
59881;DHT22;45751;51.380;10.326;2022-12-29T16:17:14;9.40;82.50
59881;DHT22;45751;51.380;10.326;2022-12-29T16:19:50;9.40;82.50
59881;DHT22;45751;51.380;10.326;2022-12-29T16:22:28;9.30;82.20
59881;DHT22;45751;51.380;10.326;2022-12-29T16:24:58;9.30;81.90
59881;DHT22;45751;51.380;10.326;2022-12-29T16:27:39;9.30;81.90
59881;DHT22;45751;51.380;10.326;2022-12-29T16:30:20;9.30;81.50
59881;DHT22;45751;51.380;10.326;2022-12-29T16:33:01;9.30;81.40
59881;DHT22;45751;51.380;10.326;2022-12-29T16:35:38;9.30;81.30
59881;DHT22;45751;51.380;10.326;2022-12-29T16:38:20;9.20;81.40
59881;DHT22;45751;51.380;10.326;2022-12-29T16:43:29;9.20;81.80
59881;DHT22;45751;51.380;10.326;2022-12-29T16:48:27;9.10;81.80
59881;DHT22;45751;51.380;10.326;2022-12-29T16:51:09;9.10;81.90
59881;DHT22;45751;51.380;10.326;2022-12-29T16:53:40;9.10;82.10
59881;DHT22;45751;51.380;10.326;2022-12-29T16:56:14;9.10;82.20
59881;DHT22;45751;51.380;10.326;2022-12-29T16:58:50;9.10;82.10
59881;DHT22;45751;51.380;10.326;2022-12-29T17:01:20;9.10;82.60
59881;DHT22;45751;51.380;10.326;2022-12-29T17:03:50;9.00;83.00
59881;DHT22;45751;51.380;10.326;2022-12-29T17:06:20;9.00;83.40
59881;DHT22;45751;51.380;10.326;2022-12-29T17:08:48;9.00;84.00
59881;DHT22;45751;51.380;10.326;2022-12-29T17:11:28;8.90;84.40
59881;DHT22;45751;51.380;10.326;2022-12-29T17:19:51;8.80;85.30
59881;DHT22;45751;51.380;10.326;2022-12-29T17:22:24;8.90;85.40
59881;DHT22;45751;51.380;10.326;2022-12-29T17:24:56;8.80;85.60
59881;DHT22;45751;51.380;10.326;2022-12-29T17:27:35;8.80;85.70
59881;DHT22;45751;51.380;10.326;2022-12-29T17:30:15;8.80;85.70
59881;DHT22;45751;51.380;10.326;2022-12-29T17:32:45;8.70;85.50
59881;DHT22;45751;51.380;10.326;2022-12-29T17:35:17;8.70;85.30
59881;DHT22;45751;51.380;10.326;2022-12-29T17:37:44;8.70;85.00
59881;DHT22;45751;51.380;10.326;2022-12-29T17:40:16;8.70;84.90
59881;DHT22;45751;51.380;10.326;2022-12-29T17:42:46;8.60;84.50
59881;DHT22;45751;51.380;10.326;2022-12-29T17:45:22;8.60;84.30
59881;DHT22;45751;51.380;10.326;2022-12-29T17:47:50;8.60;84.30
59881;DHT22;45751;51.380;10.326;2022-12-29T17:50:22;8.70;85.60
59881;DHT22;45751;51.380;10.326;2022-12-29T17:52:57;8.60;83.70
59881;DHT22;45751;51.380;10.326;2022-12-29T17:55:27;8.60;83.70
59881;DHT22;45751;51.380;10.326;2022-12-29T18:00:45;8.40;83.30
59881;DHT22;45751;51.380;10.326;2022-12-29T18:03:42;8.70;83.00
59881;DHT22;45751;51.380;10.326;2022-12-29T18:06:10;8.60;82.80
59881;DHT22;45751;51.380;10.326;2022-12-29T18:08:39;8.60;82.60
59881;DHT22;45751;51.380;10.326;2022-12-29T18:11:23;8.50;82.40
59881;DHT22;45751;51.380;10.326;2022-12-29T18:13:52;8.60;82.30
59881;DHT22;45751;51.380;10.326;2022-12-29T18:16:20;8.60;82.20